createdAt,value
2022-09-01T00:00:21.985Z,1.70
2022-09-01T00:02:51.713Z,1.80
2022-09-01T00:05:21.334Z,1.95
2022-09-01T00:07:51.207Z,1.95
2022-09-01T00:10:20.826Z,1.60
2022-09-01T00:12:53.063Z,1.67
2022-09-01T00:15:22.713Z,2.00
2022-09-01T00:17:52.345Z,2.00
2022-09-01T00:20:22.003Z,1.80
2022-09-01T00:22:51.910Z,2.72
2022-09-01T00:25:22.140Z,2.40
2022-09-01T00:27:54.545Z,1.85
2022-09-01T00:30:24.574Z,1.70
2022-09-01T00:32:54.393Z,2.08
2022-09-01T00:35:23.976Z,2.13
2022-09-01T00:37:53.547Z,1.63
2022-09-01T00:40:23.216Z,2.05
2022-09-01T00:42:55.468Z,1.65
2022-09-01T00:45:25.365Z,1.95
2022-09-01T00:47:55.081Z,1.98
2022-09-01T00:50:25.021Z,1.75
2022-09-01T00:52:55.765Z,2.08
2022-09-01T00:55:28.327Z,1.75
2022-09-01T00:58:03.479Z,1.98
2022-09-01T01:00:34.487Z,1.98
2022-09-01T01:03:04.103Z,2.10
2022-09-01T01:05:34.898Z,1.85
2022-09-01T01:08:08.848Z,2.10
2022-09-01T01:10:40.257Z,2.08
2022-09-01T01:13:14.220Z,2.00
2022-09-01T01:15:44.742Z,1.98
2022-09-01T01:18:14.714Z,1.77
2022-09-01T01:20:58.996Z,1.98
2022-09-01T01:23:37.221Z,2.17
2022-09-01T01:26:10.518Z,2.13
2022-09-01T01:28:41.033Z,2.40
2022-09-01T01:31:12.781Z,1.85
2022-09-01T01:33:44.770Z,1.80
2022-09-01T01:36:17.593Z,1.80
2022-09-01T01:38:48.578Z,2.20
2022-09-01T01:41:22.106Z,2.40
2022-09-01T01:43:51.847Z,2.00
2022-09-01T01:46:22.878Z,2.10
2022-09-01T01:48:53.990Z,1.88
2022-09-01T01:51:26.918Z,2.10
2022-09-01T01:53:57.180Z,2.30
2022-09-01T01:56:29.418Z,2.28
2022-09-01T01:58:59.556Z,2.20
2022-09-01T02:01:32.277Z,2.10
2022-09-01T02:04:04.452Z,1.90
2022-09-01T02:06:37.098Z,2.20
2022-09-01T02:09:07.501Z,2.20
2022-09-01T02:11:40.251Z,2.08
2022-09-01T02:14:13.704Z,2.15
2022-09-01T02:16:44.482Z,2.50
2022-09-01T02:19:14.301Z,2.15
2022-09-01T02:21:49.114Z,2.30
2022-09-01T02:24:18.711Z,2.10
2022-09-01T02:26:50.936Z,2.22
2022-09-01T02:29:25.609Z,2.63
2022-09-01T02:31:56.452Z,2.50
2022-09-01T02:34:29.186Z,2.35
2022-09-01T02:36:59.591Z,2.78
2022-09-01T02:39:30.326Z,2.40
2022-09-01T02:42:02.551Z,2.30
2022-09-01T02:44:32.997Z,2.28
2022-09-01T02:47:05.674Z,2.15
2022-09-01T02:49:38.899Z,1.92
2022-09-01T02:52:08.588Z,2.35
2022-09-01T02:54:38.234Z,2.10
2022-09-01T02:57:10.474Z,2.47
2022-09-01T02:59:43.928Z,1.92
2022-09-01T03:02:13.958Z,2.42
2022-09-01T03:04:44.656Z,2.58
2022-09-01T03:07:18.460Z,2.80
2022-09-01T03:09:49.025Z,2.85
2022-09-01T03:12:21.239Z,2.33
2022-09-01T03:14:50.856Z,2.33
2022-09-01T03:17:21.800Z,2.70
2022-09-01T03:22:35.433Z,2.15
2022-09-01T03:25:05.049Z,2.70
2022-09-01T03:27:37.961Z,2.40
2022-09-01T03:30:08.214Z,2.72
2022-09-01T03:32:37.936Z,2.53
2022-09-01T03:35:09.545Z,3.15
2022-09-01T03:37:39.668Z,2.67
2022-09-01T03:40:10.413Z,2.78
2022-09-01T03:42:43.960Z,2.97
2022-09-01T03:45:16.396Z,2.60
2022-09-01T03:47:47.283Z,2.63
2022-09-01T03:50:20.588Z,2.25
2022-09-01T03:52:53.411Z,2.33
2022-09-01T03:55:27.423Z,2.85
2022-09-01T03:58:03.362Z,2.92
2022-09-01T04:00:36.005Z,2.70
2022-09-01T04:03:07.789Z,2.78
2022-09-01T04:05:38.381Z,2.78
2022-09-01T04:08:11.342Z,2.88
2022-09-01T04:10:54.178Z,2.90
2022-09-01T04:13:30.450Z,2.92
2022-09-01T04:16:00.570Z,3.17
2022-09-01T04:18:27.744Z,3.05
2022-09-01T04:20:58.522Z,2.65
2022-09-01T04:23:30.529Z,2.15
2022-09-01T04:26:09.095Z,2.90
2022-09-01T04:28:45.711Z,2.78
2022-09-01T04:31:18.878Z,3.25
2022-09-01T04:33:52.898Z,3.78
2022-09-01T04:36:26.015Z,3.22
2022-09-01T04:38:57.825Z,2.88
2022-09-01T04:41:32.115Z,3.00
2022-09-01T04:44:08.007Z,3.30
2022-09-01T04:46:42.419Z,3.33
2022-09-01T04:49:19.479Z,3.20
2022-09-01T04:51:53.714Z,3.20
2022-09-01T04:54:24.394Z,3.15
2022-09-01T04:56:55.122Z,3.15
2022-09-01T04:59:29.836Z,2.95
2022-09-01T05:02:03.165Z,3.40
2022-09-01T05:04:35.085Z,3.38
2022-09-01T05:07:05.226Z,3.60
2022-09-01T05:09:41.026Z,3.50
2022-09-01T05:12:37.146Z,3.20
2022-09-01T05:15:10.302Z,3.33
2022-09-01T05:17:40.235Z,3.47
2022-09-01T05:20:11.973Z,3.67
2022-09-01T05:22:42.594Z,3.40
2022-09-01T05:25:16.027Z,3.38
2022-09-01T05:27:49.815Z,3.97
2022-09-01T05:30:28.762Z,3.22
2022-09-01T05:32:58.419Z,3.40
2022-09-01T05:35:33.071Z,3.28
2022-09-01T05:38:03.776Z,3.22
2022-09-01T05:40:34.600Z,3.25
2022-09-01T05:43:04.643Z,3.10
2022-09-01T05:46:03.114Z,3.47
2022-09-01T05:48:31.664Z,3.33
2022-09-01T05:51:01.534Z,3.88
2022-09-01T05:53:31.637Z,3.53
2022-09-01T05:56:06.833Z,3.60
2022-09-01T06:01:33.827Z,3.50
2022-09-01T06:04:06.634Z,3.55
2022-09-01T06:07:01.761Z,3.25
2022-09-01T06:09:30.611Z,3.33
2022-09-01T06:12:02.988Z,3.22
2022-09-01T06:14:32.565Z,3.60
2022-09-01T06:17:06.844Z,3.80
2022-09-01T06:19:37.466Z,3.05
2022-09-01T06:22:10.805Z,3.33
2022-09-01T06:24:44.877Z,3.70
2022-09-01T06:27:20.474Z,3.33
2022-09-01T06:29:53.805Z,3.83
2022-09-01T06:32:27.290Z,3.22
2022-09-01T06:35:00.592Z,3.58
2022-09-01T06:37:30.938Z,3.22
2022-09-01T06:40:04.269Z,3.53
2022-09-01T06:42:35.415Z,4.20
2022-09-01T06:45:10.384Z,4.03
2022-09-01T06:47:43.742Z,3.67
2022-09-01T06:51:14.860Z,3.08
2022-09-01T06:56:02.981Z,4.32
2022-09-01T06:58:33.512Z,3.58
2022-09-01T07:01:08.450Z,3.30
2022-09-01T07:03:41.268Z,3.67
2022-09-01T07:09:50.033Z,3.70
2022-09-01T07:13:05.013Z,3.20
2022-09-01T07:18:21.907Z,3.70
2022-09-01T07:23:47.387Z,4.03
2022-09-01T07:26:46.657Z,3.08
2022-09-01T07:29:17.591Z,3.05
2022-09-01T07:31:49.373Z,3.50
2022-09-01T07:42:30.160Z,3.22
2022-09-01T07:42:59.522Z,3.00
2022-09-01T07:43:22.439Z,2.63
2022-09-01T07:51:55.312Z,2.45
2022-09-01T07:54:28.066Z,2.60
2022-09-01T07:56:59.876Z,2.53
2022-09-01T07:59:31.455Z,2.55
2022-09-01T08:02:07.087Z,2.53
2022-09-01T08:04:40.106Z,2.30
2022-09-01T08:07:15.975Z,2.50
2022-09-01T08:09:49.094Z,2.28
2022-09-01T08:12:19.097Z,2.65
2022-09-01T08:17:52.018Z,2.35
2022-09-01T08:20:23.544Z,2.20
2022-09-01T08:23:13.211Z,1.90
2022-09-01T08:25:45.968Z,1.83
2022-09-01T08:28:16.038Z,2.10
2022-09-01T08:30:52.388Z,1.77
2022-09-01T08:33:26.202Z,1.85
2022-09-01T08:35:57.373Z,2.35
2022-09-01T08:38:29.175Z,2.80
2022-09-01T08:41:03.534Z,2.20
2022-09-01T08:43:43.395Z,1.90
2022-09-01T08:46:16.272Z,2.20
2022-09-01T08:49:24.297Z,2.33
2022-09-01T08:52:02.290Z,3.10
2022-09-01T08:54:35.381Z,2.72
2022-09-01T08:57:11.870Z,2.50
2022-09-01T09:00:00.505Z,2.50
2022-09-01T09:02:45.302Z,2.42
2022-09-01T09:05:26.751Z,2.00
2022-09-01T09:08:08.186Z,2.05
2022-09-01T09:10:43.743Z,1.83
2022-09-01T09:13:18.920Z,1.52
2022-09-01T09:16:07.258Z,1.58
2022-09-01T09:18:40.726Z,1.73
2022-09-01T09:21:13.530Z,1.30
2022-09-01T09:23:45.283Z,1.70
2022-09-01T09:26:15.953Z,1.10
2022-09-01T09:28:55.304Z,1.27
2022-09-01T09:31:28.766Z,1.33
2022-09-01T09:33:59.124Z,1.25
2022-09-01T09:36:33.072Z,2.72
2022-09-01T09:39:10.809Z,1.55
2022-09-01T09:41:40.833Z,1.48
2022-09-01T09:44:23.150Z,2.55
2022-09-01T09:46:53.362Z,1.30
2022-09-01T09:49:35.189Z,1.35
2022-09-01T09:52:17.850Z,1.60
2022-09-01T09:55:01.817Z,1.38
2022-09-01T09:57:32.741Z,1.33
2022-09-01T10:00:11.422Z,1.10
2022-09-01T10:02:45.218Z,1.27
2022-09-01T10:05:26.441Z,1.00
2022-09-01T10:07:57.354Z,1.42
2022-09-01T10:10:31.772Z,1.40
2022-09-01T10:13:02.456Z,1.10
2022-09-01T10:15:35.489Z,1.15
2022-09-01T10:21:00.639Z,1.10
2022-09-01T10:23:32.556Z,1.27
2022-09-01T10:26:06.388Z,1.38
2022-09-01T10:28:41.616Z,0.70
2022-09-01T10:31:23.967Z,1.00
2022-09-01T10:33:54.762Z,1.10
2022-09-01T10:36:25.192Z,0.85
2022-09-01T10:39:04.382Z,1.50
2022-09-01T10:41:53.262Z,1.83
2022-09-01T10:44:31.989Z,2.17
2022-09-01T10:47:06.276Z,1.13
2022-09-01T10:49:52.599Z,1.10
2022-09-01T10:52:37.628Z,1.10
2022-09-01T10:55:09.626Z,1.10
2022-09-01T10:57:47.842Z,0.98
2022-09-01T11:00:36.016Z,1.00
2022-09-01T11:03:42.124Z,1.20
2022-09-01T11:06:33.951Z,1.70
2022-09-01T11:09:06.041Z,2.53
2022-09-01T11:11:40.860Z,3.50
2022-09-01T11:14:19.880Z,2.38
2022-09-01T11:17:06.269Z,1.17
2022-09-01T11:19:38.361Z,1.40
2022-09-01T11:22:26.057Z,1.25
2022-09-01T11:25:11.797Z,1.05
2022-09-01T11:27:57.284Z,1.13
2022-09-01T11:30:34.974Z,1.23
2022-09-01T11:33:09.092Z,1.30
2022-09-01T11:35:39.042Z,2.08
2022-09-01T11:38:12.098Z,1.60
2022-09-01T11:40:41.798Z,1.25
2022-09-01T11:43:13.790Z,1.50
2022-09-01T11:45:48.629Z,2.22
2022-09-01T11:48:19.477Z,1.85
2022-09-01T11:50:59.789Z,1.90
2022-09-01T11:53:32.344Z,1.85
2022-09-01T11:56:15.460Z,1.20
2022-09-01T11:58:45.357Z,1.45
2022-09-01T12:01:16.389Z,1.33
2022-09-01T12:03:47.308Z,1.20
2022-09-01T12:06:22.480Z,1.05
2022-09-01T12:08:59.050Z,1.30
2022-09-01T12:11:31.337Z,0.73
2022-09-01T12:14:03.973Z,1.10
2022-09-01T12:16:37.367Z,0.82
2022-09-01T12:19:08.663Z,0.70
2022-09-01T12:21:40.603Z,0.93
2022-09-01T12:24:18.215Z,0.90
2022-09-01T12:26:48.443Z,0.98
2022-09-01T12:29:19.682Z,1.15
2022-09-01T12:31:50.506Z,0.70
2022-09-01T12:34:30.927Z,0.88
2022-09-01T12:37:08.736Z,0.70
2022-09-01T12:39:41.541Z,0.70
2022-09-01T12:42:13.682Z,1.17
2022-09-01T12:44:51.072Z,0.80
2022-09-01T12:47:36.069Z,0.80
2022-09-01T12:50:07.075Z,0.93
2022-09-01T12:52:37.543Z,0.85
2022-09-01T12:58:08.174Z,0.95
2022-09-01T13:00:39.700Z,0.90
2022-09-01T13:03:11.041Z,0.80
2022-09-01T13:05:42.547Z,0.80
2022-09-01T13:08:13.200Z,1.00
2022-09-01T13:10:46.192Z,1.00
2022-09-01T13:13:16.912Z,0.98
2022-09-01T13:15:48.375Z,0.95
2022-09-01T13:18:18.312Z,0.75
2022-09-01T13:20:48.812Z,1.00
2022-09-01T13:23:19.059Z,0.88
2022-09-01T13:25:51.396Z,0.77
2022-09-01T13:36:46.159Z,0.70
2022-09-01T13:39:18.847Z,0.57
2022-09-01T13:41:51.100Z,1.00
2022-09-01T13:44:21.121Z,0.88
2022-09-01T13:49:43.982Z,0.73
2022-09-01T13:52:30.255Z,0.90
2022-09-01T13:54:59.852Z,0.80
2022-09-01T13:57:36.629Z,0.80
2022-09-01T14:00:08.329Z,0.70
2022-09-01T14:02:39.904Z,0.55
2022-09-01T14:05:10.013Z,0.75
2022-09-01T14:07:39.627Z,0.80
2022-09-01T14:10:10.682Z,0.75
2022-09-01T14:12:42.938Z,0.50
2022-09-01T14:15:16.553Z,0.73
2022-09-01T14:17:47.961Z,1.00
2022-09-01T14:20:18.729Z,1.10
2022-09-01T14:22:48.469Z,1.10
2022-09-01T14:25:18.438Z,1.00
2022-09-01T14:27:51.628Z,1.00
2022-09-01T14:30:26.655Z,0.73
2022-09-01T14:32:59.592Z,0.90
2022-09-01T14:35:30.878Z,0.90
2022-09-01T14:38:00.712Z,0.88
2022-09-01T14:40:30.856Z,0.70
2022-09-01T14:43:03.109Z,0.80
2022-09-01T14:45:32.693Z,0.70
2022-09-01T14:48:03.577Z,0.75
2022-09-01T14:50:35.312Z,0.88
2022-09-01T14:53:05.787Z,0.90
2022-09-01T14:55:35.388Z,0.70
2022-09-01T14:58:08.341Z,0.73
2022-09-01T15:00:41.171Z,0.75
2022-09-01T15:03:10.826Z,0.70
2022-09-01T15:05:40.876Z,0.90
2022-09-01T15:08:16.999Z,0.57
2022-09-01T15:10:47.472Z,0.60
2022-09-01T15:13:19.865Z,0.45
2022-09-01T15:15:49.687Z,0.60
2022-09-01T15:18:19.277Z,1.17
2022-09-01T15:20:51.101Z,1.02
2022-09-01T15:23:21.712Z,0.70
2022-09-01T15:25:52.182Z,0.80
2022-09-01T15:28:24.389Z,0.73
2022-09-01T15:30:54.747Z,0.70
2022-09-01T15:33:24.344Z,0.85
2022-09-01T15:35:53.954Z,0.55
2022-09-01T15:38:28.436Z,0.63
2022-09-01T15:41:01.848Z,0.50
2022-09-01T15:43:34.193Z,0.55
2022-09-01T15:46:07.092Z,0.32
2022-09-01T15:48:36.733Z,0.52
2022-09-01T15:51:17.843Z,0.40
2022-09-01T15:53:47.517Z,0.50
2022-09-01T15:56:18.249Z,0.45
2022-09-01T15:59:01.095Z,0.73
2022-09-01T16:01:31.914Z,0.80
2022-09-01T16:04:01.627Z,0.60
2022-09-01T16:06:31.234Z,0.40
2022-09-01T16:09:00.892Z,0.68
2022-09-01T16:11:30.500Z,0.68
2022-09-01T16:14:02.711Z,0.70
2022-09-01T16:16:40.736Z,0.85
2022-09-01T16:19:27.354Z,0.80
2022-09-01T16:22:00.026Z,0.70
2022-09-01T16:24:30.173Z,0.60
2022-09-01T16:27:00.223Z,0.95
2022-09-01T16:29:40.941Z,0.85
2022-09-01T16:32:12.872Z,0.50
2022-09-01T16:34:47.279Z,0.63
2022-09-01T16:37:22.234Z,0.80
2022-09-01T16:39:53.915Z,0.80
2022-09-01T16:42:28.213Z,0.40
2022-09-01T16:45:07.051Z,0.45
2022-09-01T16:47:48.175Z,13.00
2022-09-01T16:50:22.012Z,19.67
2022-09-01T16:53:00.162Z,2.88
2022-09-01T16:55:32.682Z,1.25
2022-09-01T16:58:06.667Z,0.75
2022-09-01T17:00:43.152Z,0.73
2022-09-01T17:03:19.421Z,0.88
2022-09-01T17:05:53.144Z,0.88
2022-09-01T17:08:24.498Z,0.80
2022-09-01T17:10:56.444Z,1.00
2022-09-01T17:13:28.430Z,1.10
2022-09-01T17:16:08.147Z,0.50
2022-09-01T17:18:40.716Z,0.60
2022-09-01T17:21:13.728Z,0.73
2022-09-01T17:23:45.264Z,0.57
2022-09-01T17:26:18.306Z,0.85
2022-09-01T17:28:51.350Z,0.80
2022-09-01T17:31:27.420Z,0.60
2022-09-01T17:34:06.472Z,0.80
2022-09-01T17:36:46.674Z,2.10
2022-09-01T17:39:24.660Z,2.25
2022-09-01T17:41:57.706Z,3.63
2022-09-01T17:44:35.727Z,4.68
2022-09-01T17:47:12.839Z,5.15
2022-09-01T17:49:48.189Z,4.43
2022-09-01T17:52:23.200Z,3.30
2022-09-01T17:54:56.771Z,2.35
2022-09-01T17:57:30.712Z,2.13
2022-09-01T18:00:04.979Z,1.45
2022-09-01T18:03:02.652Z,2.45
2022-09-01T18:05:39.242Z,1.80
2022-09-01T18:08:17.035Z,2.90
2022-09-01T18:10:48.860Z,9.85
2022-09-01T18:13:49.147Z,3.97
2022-09-01T18:16:15.582Z,4.15
2022-09-01T18:18:51.193Z,2.92
2022-09-01T18:21:21.594Z,2.13
2022-09-01T18:23:52.242Z,2.05
2022-09-01T18:26:29.706Z,1.90
2022-09-01T18:28:59.850Z,2.00
2022-09-01T18:31:38.364Z,1.95
2022-09-01T18:34:14.221Z,1.50
2022-09-01T18:36:50.222Z,1.65
2022-09-01T18:39:23.722Z,2.25
2022-09-01T18:42:00.237Z,2.55
2022-09-01T18:44:38.115Z,1.95
2022-09-01T18:47:10.661Z,2.70
2022-09-01T18:49:50.028Z,6.00
2022-09-01T18:52:29.779Z,5.28
2022-09-01T18:55:03.908Z,3.63
2022-09-01T18:57:38.001Z,2.90
2022-09-01T19:00:18.671Z,2.65
2022-09-01T19:02:57.417Z,2.28
2022-09-01T19:05:35.833Z,2.70
2022-09-01T19:08:10.264Z,3.00
2022-09-01T19:10:46.267Z,3.03
2022-09-01T19:13:19.519Z,2.65
2022-09-01T19:15:54.265Z,2.50
2022-09-01T19:18:28.140Z,2.15
2022-09-01T19:21:04.281Z,2.05
2022-09-01T19:23:40.588Z,2.47
2022-09-01T19:26:13.591Z,3.03
2022-09-01T19:28:44.590Z,3.53
2022-09-01T19:31:20.846Z,3.30
2022-09-01T19:33:51.997Z,3.03
2022-09-01T19:36:26.770Z,2.72
2022-09-01T19:38:56.637Z,2.38
2022-09-01T19:41:28.156Z,2.50
2022-09-01T19:44:00.866Z,2.30
2022-09-01T19:46:34.765Z,3.22
2022-09-01T19:49:07.274Z,2.72
2022-09-01T19:51:42.048Z,2.97
2022-09-01T19:54:12.756Z,2.95
2022-09-01T19:56:49.862Z,2.65
2022-09-01T19:59:21.744Z,3.13
2022-09-01T20:01:59.291Z,3.15
2022-09-01T20:04:33.801Z,2.55
2022-09-01T20:07:06.337Z,2.67
2022-09-01T20:09:39.951Z,2.95
2022-09-01T20:12:14.363Z,3.33
2022-09-01T20:14:51.939Z,2.60
2022-09-01T20:17:24.930Z,2.47
2022-09-01T20:19:57.943Z,2.50
2022-09-01T20:22:33.634Z,2.17
2022-09-01T20:25:10.748Z,2.70
2022-09-01T20:27:46.051Z,3.38
2022-09-01T20:30:16.855Z,3.08
2022-09-01T20:32:51.642Z,2.65
2022-09-01T20:35:24.143Z,3.17
2022-09-01T20:37:59.215Z,1.88
2022-09-01T20:40:30.879Z,2.17
2022-09-01T20:43:18.556Z,2.13
2022-09-01T20:45:48.691Z,1.73
2022-09-01T20:48:19.183Z,3.38
2022-09-01T20:50:53.857Z,4.25
2022-09-01T20:53:37.480Z,4.60
2022-09-01T20:56:10.713Z,5.18
2022-09-01T20:58:48.647Z,3.95
2022-09-01T21:01:22.018Z,3.80
2022-09-01T21:04:01.396Z,3.33
2022-09-01T21:11:40.028Z,3.17
2022-09-01T21:14:20.453Z,3.20
2022-09-01T21:16:57.207Z,2.88
2022-09-01T21:19:31.870Z,2.95
2022-09-01T21:22:06.472Z,3.10
2022-09-01T21:24:36.605Z,3.03
2022-09-01T21:27:10.181Z,2.85
2022-09-01T21:29:47.443Z,2.90
2022-09-01T21:32:17.848Z,2.72
2022-09-01T21:34:47.683Z,2.10
2022-09-01T21:37:17.633Z,2.55
2022-09-01T21:39:47.265Z,2.33
2022-09-01T21:42:19.773Z,2.30
2022-09-01T21:44:49.574Z,2.30
2022-09-01T21:47:19.712Z,2.13
2022-09-01T21:49:49.380Z,2.38
2022-09-01T21:52:19.016Z,2.33
2022-09-01T21:54:48.693Z,2.50
2022-09-01T21:57:21.479Z,2.65
2022-09-01T21:59:51.608Z,2.13
2022-09-01T22:02:21.500Z,2.10
2022-09-01T22:04:57.885Z,2.28
2022-09-01T22:07:27.469Z,2.47
2022-09-01T22:09:57.973Z,1.90
2022-09-01T22:12:30.319Z,2.03
2022-09-01T22:14:59.908Z,2.35
2022-09-01T22:17:31.631Z,1.90
2022-09-01T22:20:01.438Z,1.65
2022-09-01T22:22:31.039Z,1.85
2022-09-01T22:25:00.658Z,1.52
2022-09-01T22:27:32.864Z,1.83
2022-09-01T22:30:02.550Z,1.50
2022-09-01T22:32:38.036Z,1.90
2022-09-01T22:35:07.817Z,1.60
2022-09-01T22:37:38.010Z,1.60
2022-09-01T22:40:08.595Z,1.58
2022-09-01T22:42:41.103Z,1.70
2022-09-01T22:45:11.749Z,1.75
2022-09-01T22:47:41.625Z,1.65
2022-09-01T22:50:12.241Z,1.80
2022-09-01T22:52:42.128Z,1.73
2022-09-01T22:55:13.784Z,1.65
2022-09-01T22:57:46.004Z,1.60
2022-09-01T23:00:16.283Z,1.48
2022-09-01T23:02:45.957Z,1.75
2022-09-01T23:05:16.550Z,1.30
2022-09-01T23:07:46.137Z,1.40
2022-09-01T23:10:15.728Z,1.55
2022-09-01T23:12:48.067Z,1.90
2022-09-01T23:15:17.692Z,1.58
2022-09-01T23:17:47.254Z,1.40
2022-09-01T23:20:16.923Z,1.42
2022-09-01T23:22:47.549Z,1.17
2022-09-01T23:25:18.267Z,1.25
2022-09-01T23:27:50.469Z,1.65
2022-09-01T23:30:20.099Z,1.23
2022-09-01T23:32:49.708Z,1.10
2022-09-01T23:35:19.348Z,1.40
2022-09-01T23:37:48.995Z,1.08
2022-09-01T23:40:18.675Z,1.40
2022-09-01T23:42:50.916Z,1.20
2022-09-01T23:45:20.658Z,1.33
2022-09-01T23:47:50.242Z,1.00
2022-09-01T23:50:19.998Z,1.33
2022-09-01T23:52:50.441Z,1.17
2022-09-01T23:55:21.619Z,1.00
2022-09-01T23:57:53.939Z,1.10
